Time;durP1;ratioP1;P1;durP2;ratioP2;P2;SDS_P1;SDS_P2;PMS_P1;PMS_P2;Temp;Humidity;BMP_temperature;BMP_pressure;BME280_temperature;BME280_humidity;BME280_pressure;Samples;Min_cycle;Max_cycle;Signal;HPM_P1;HPM_P2
2023/08/14 00:00:07;;;;;;;6.68;4.25;;;;;;;-140.66;100.00;55571.53;5135811;27;20023;-71
2023/08/14 00:03:52;;;;;;;6.57;3.95;;;;;;;-140.66;100.00;55571.53;5136752;27;20043;-72
2023/08/14 00:07:37;;;;;;;5.88;3.63;;;;;;;-140.66;100.00;55571.53;5136028;27;20023;-71
2023/08/14 00:11:21;;;;;;;5.32;3.83;;;;;;;-140.66;100.00;55571.53;5135406;27;20106;-73
2023/08/14 00:15:05;;;;;;;6.07;3.58;;;;;;;-140.66;100.00;55571.53;5134848;27;20441;-72
2023/08/14 00:18:50;;;;;;;5.20;4.10;;;;;;;-140.66;100.00;55571.53;5135624;27;20045;-72
2023/08/14 00:22:34;;;;;;;5.38;4.20;;;;;;;-140.66;100.00;55571.53;5134990;27;20113;-71
2023/08/14 00:26:19;;;;;;;5.55;4.30;;;;;;;-140.66;100.00;55571.53;5134850;27;20038;-72
2023/08/14 00:30:04;;;;;;;7.60;4.28;;;;;;;-140.66;100.00;55571.53;5135193;27;20027;-71
2023/08/14 00:33:49;;;;;;;7.65;4.03;;;;;;;-140.66;100.00;55571.53;5135085;27;20109;-71
2023/08/14 00:37:40;;;;;;;14.38;4.40;;;;;;;-140.66;100.00;55571.53;5134991;27;20030;-72
2023/08/14 00:41:25;;;;;;;9.52;4.32;;;;;;;-140.66;100.00;55571.53;5133746;27;20441;-72
2023/08/14 00:45:09;;;;;;;22.15;6.72;;;;;;;-140.66;100.00;55571.53;5135090;27;20031;-73
2023/08/14 00:48:54;;;;;;;7.82;4.97;;;;;;;-140.66;100.00;55571.53;5135342;27;20058;-72
2023/08/14 00:52:42;;;;;;;7.30;4.50;;;;;;;-140.66;100.00;55571.53;5134723;27;20066;-72
2023/08/14 00:56:29;;;;;;;7.78;4.70;;;;;;;-140.66;100.00;55571.53;5134148;27;20110;-72
2023/08/14 01:00:13;;;;;;;5.75;4.65;;;;;;;-140.66;100.00;55571.53;5135223;27;20418;-72
2023/08/14 01:03:57;;;;;;;6.47;4.93;;;;;;;-140.66;100.00;55571.53;5134614;27;20023;-72
2023/08/14 01:07:42;;;;;;;5.95;5.07;;;;;;;-140.66;100.00;55571.53;5135068;27;20049;-72
2023/08/14 01:11:59;;;;;;;9.32;4.80;;;;;;;-140.66;100.00;55571.53;5134301;27;20107;-72
2023/08/14 01:15:46;;;;;;;6.07;5.07;;;;;;;-140.66;100.00;55571.53;5134768;27;20073;-72
2023/08/14 01:19:34;;;;;;;8.48;5.40;;;;;;;-140.66;100.00;55571.53;5134218;27;20394;-71
2023/08/14 01:23:47;;;;;;;7.70;5.15;;;;;;;-140.66;100.00;55571.53;5134144;27;20084;-72
2023/08/14 01:27:32;;;;;;;10.45;5.30;;;;;;;-140.66;100.00;55571.53;5135561;28;20022;-72
2023/08/14 01:31:19;;;;;;;7.55;5.00;;;;;;;-140.66;100.00;55571.53;5133730;28;20034;-71
2023/08/14 01:35:03;;;;;;;8.38;5.30;;;;;;;-140.66;100.00;55571.53;5134104;28;20038;-72
2023/08/14 01:39:04;;;;;;;9.70;5.32;;;;;;;-140.66;100.00;55571.53;5133210;28;20046;-71
2023/08/14 01:42:52;;;;;;;9.63;5.03;;;;;;;-140.66;100.00;55571.53;5134368;28;20042;-71
2023/08/14 01:46:38;;;;;;;10.73;5.25;;;;;;;-140.66;100.00;55571.53;5134482;28;20080;-72
2023/08/14 01:50:24;;;;;;;7.25;4.78;;;;;;;-140.66;100.00;55571.53;5137820;27;20039;-72
2023/08/14 01:54:09;;;;;;;6.85;4.82;;;;;;;-140.66;100.00;55571.53;5138151;27;20030;-71
2023/08/14 01:57:54;;;;;;;7.40;4.70;;;;;;;-140.66;100.00;55571.53;5137764;27;20038;-72
2023/08/14 02:01:38;;;;;;;6.32;5.05;;;;;;;-140.66;100.00;55571.53;5137152;27;20053;-71
2023/08/14 02:05:23;;;;;;;8.75;5.05;;;;;;;-140.66;100.00;55571.53;5137718;27;20030;-72
2023/08/14 02:09:07;;;;;;;7.90;4.72;;;;;;;-140.66;100.00;55571.53;5137567;27;20139;-72
2023/08/14 02:12:51;;;;;;;7.13;4.82;;;;;;;-140.66;100.00;55571.53;5138332;27;20031;-72
2023/08/14 02:16:36;;;;;;;7.18;5.20;;;;;;;-140.66;100.00;55571.53;5137568;27;20027;-72
2023/08/14 02:20:20;;;;;;;7.10;4.80;;;;;;;-140.66;100.00;55571.53;5139056;27;20034;-71
2023/08/14 02:24:05;;;;;;;7.32;5.13;;;;;;;-140.66;100.00;55571.53;5137855;27;20333;-72
2023/08/14 02:27:49;;;;;;;8.82;5.18;;;;;;;-140.66;100.00;55571.53;5136422;27;20345;-72
2023/08/14 02:31:34;;;;;;;9.63;5.57;;;;;;;-140.66;100.00;55571.53;5137396;27;20026;-72
2023/08/14 02:35:37;;;;;;;9.85;5.43;;;;;;;-140.66;100.00;55571.53;5136986;27;20147;-72
2023/08/14 02:39:21;;;;;;;7.57;5.28;;;;;;;-140.66;100.00;55571.53;5137863;27;20373;-72
2023/08/14 02:43:06;;;;;;;9.18;5.90;;;;;;;-140.66;100.00;55571.53;5137827;27;20080;-72
2023/08/14 02:46:50;;;;;;;9.18;5.50;;;;;;;-140.66;100.00;55571.53;5141758;27;20015;-71
2023/08/14 02:50:34;;;;;;;11.13;5.50;;;;;;;-140.66;100.00;55571.53;5136711;27;20122;-71
2023/08/14 02:54:19;;;;;;;10.70;5.43;;;;;;;-140.66;100.00;55571.53;5138286;27;20027;-72
2023/08/14 02:58:03;;;;;;;7.45;5.40;;;;;;;-140.66;100.00;55571.53;5136959;27;20053;-72
2023/08/14 03:01:47;;;;;;;8.73;6.25;;;;;;;-140.66;100.00;55571.53;5136232;27;20023;-73
2023/08/14 03:05:33;;;;;;;9.10;5.53;;;;;;;-140.66;100.00;55571.53;5136629;27;20058;-73
2023/08/14 03:09:17;;;;;;;9.55;5.78;;;;;;;-140.66;100.00;55571.53;5136438;27;20031;-72
2023/08/14 03:13:01;;;;;;;7.43;5.65;;;;;;;-140.66;100.00;55571.53;5137047;27;20015;-72
2023/08/14 03:16:46;;;;;;;10.98;5.95;;;;;;;-140.66;100.00;55571.53;5147265;27;20097;-72
2023/08/14 03:20:30;;;;;;;8.73;5.72;;;;;;;-140.66;100.00;55571.53;5145342;27;20019;-71
2023/08/14 03:24:14;;;;;;;17.05;6.75;;;;;;;-140.66;100.00;55571.53;5135903;27;20086;-72
2023/08/14 03:27:58;;;;;;;10.38;6.50;;;;;;;-140.66;100.00;55571.53;5136259;27;20023;-72
2023/08/14 03:31:43;;;;;;;9.93;6.68;;;;;;;-140.66;100.00;55571.53;5136443;27;20137;-71
2023/08/14 03:35:27;;;;;;;10.10;6.45;;;;;;;-140.66;100.00;55571.53;5137589;27;20034;-72
2023/08/14 03:39:11;;;;;;;19.73;6.97;;;;;;;-140.66;100.00;55571.53;5137142;27;20071;-73
2023/08/14 03:42:55;;;;;;;11.75;6.40;;;;;;;-140.66;100.00;55571.53;5136932;27;20342;-73
2023/08/14 03:46:39;;;;;;;9.70;6.30;;;;;;;-140.66;100.00;55571.53;5136366;27;20019;-72
2023/08/14 03:50:24;;;;;;;9.18;5.80;;;;;;;-140.66;100.00;55571.53;5136555;27;20039;-73
2023/08/14 03:54:08;;;;;;;11.95;5.70;;;;;;;-140.66;100.00;55571.53;5136348;27;20138;-72
2023/08/14 03:57:52;;;;;;;8.70;5.53;;;;;;;-140.66;100.00;55571.53;5135675;27;20038;-72
2023/08/14 04:01:37;;;;;;;7.97;5.68;;;;;;;-140.66;100.00;55571.53;5136123;27;20094;-75
2023/08/14 04:05:22;;;;;;;8.98;5.50;;;;;;;-140.66;100.00;55571.53;5136849;27;20031;-73
2023/08/14 04:09:07;;;;;;;10.35;5.68;;;;;;;-140.66;100.00;55571.53;5135355;27;20027;-72
2023/08/14 04:12:51;;;;;;;9.55;6.15;;;;;;;-140.66;100.00;55571.53;5135596;27;20031;-72
2023/08/14 04:16:41;;;;;;;11.65;5.80;;;;;;;-140.66;100.00;55571.53;5135223;27;20026;-74
2023/08/14 04:20:25;;;;;;;8.60;5.57;;;;;;;-140.66;100.00;55571.53;5136161;27;20400;-72
2023/08/14 04:24:10;;;;;;;14.23;5.78;;;;;;;-140.66;100.00;55571.53;5135163;27;20023;-72
2023/08/14 04:27:54;;;;;;;12.15;6.07;;;;;;;-140.66;100.00;55571.53;5134364;27;20333;-73
2023/08/14 04:31:39;;;;;;;7.80;5.30;;;;;;;-140.66;100.00;55571.53;5134776;27;20037;-72
2023/08/14 04:35:24;;;;;;;14.43;6.38;;;;;;;-140.66;100.00;55571.53;5135237;27;20092;-71
2023/08/14 04:39:08;;;;;;;12.07;5.90;;;;;;;-140.66;100.00;55571.53;5134687;27;20106;-74
2023/08/14 04:42:52;;;;;;;10.90;5.88;;;;;;;-140.66;100.00;55571.53;5136627;27;20160;-72
2023/08/14 04:46:37;;;;;;;7.28;5.57;;;;;;;-140.66;100.00;55571.53;5134905;27;20387;-72
2023/08/14 04:50:21;;;;;;;9.43;5.95;;;;;;;-140.66;100.00;55571.53;5135495;27;20374;-72
2023/08/14 04:54:05;;;;;;;11.95;6.68;;;;;;;-140.66;100.00;55571.53;5134354;27;20031;-72
2023/08/14 04:57:50;;;;;;;14.00;6.40;;;;;;;-140.66;100.00;55571.53;5134408;27;20027;-72
2023/08/14 05:01:34;;;;;;;11.45;5.55;;;;;;;-140.66;100.00;55571.53;5135290;27;20034;-71
2023/08/14 05:05:19;;;;;;;11.70;6.25;;;;;;;-140.66;100.00;55571.53;5134598;27;20472;-72
2023/08/14 05:09:04;;;;;;;10.32;6.00;;;;;;;-140.66;100.00;55571.53;5135510;27;20095;-73
2023/08/14 05:12:48;;;;;;;11.45;5.90;;;;;;;-140.66;100.00;55571.53;5134822;27;20106;-72
2023/08/14 05:16:32;;;;;;;10.07;6.10;;;;;;;-140.66;100.00;55571.53;5134306;27;20019;-71
2023/08/14 05:20:16;;;;;;;13.15;6.00;;;;;;;-140.66;100.00;55571.53;5134012;27;20123;-72
2023/08/14 05:24:01;;;;;;;10.63;5.78;;;;;;;-140.66;100.00;55571.53;5133660;27;20034;-73
2023/08/14 05:27:45;;;;;;;12.93;6.05;;;;;;;-140.66;100.00;55571.53;5132341;28;20440;-72
2023/08/14 05:31:29;;;;;;;11.93;5.63;;;;;;;-140.66;100.00;55571.53;5134423;28;20437;-73
2023/08/14 05:35:16;;;;;;;10.88;5.63;;;;;;;-140.66;100.00;55571.53;5134874;28;20037;-72
2023/08/14 05:39:00;;;;;;;8.60;5.72;;;;;;;-140.66;100.00;55571.53;5133665;28;20035;-73
2023/08/14 05:42:44;;;;;;;13.77;5.72;;;;;;;-140.66;100.00;55571.53;5134437;28;20023;-72
2023/08/14 05:46:32;;;;;;;10.23;5.95;;;;;;;-140.66;100.00;55571.53;5134009;28;20073;-73
2023/08/14 05:50:16;;;;;;;11.70;6.15;;;;;;;-140.66;100.00;55571.53;5133901;28;20053;-72
2023/08/14 05:54:01;;;;;;;25.13;8.23;;;;;;;-140.66;100.00;55571.53;5134223;28;20456;-72
2023/08/14 05:57:46;;;;;;;25.08;7.90;;;;;;;-140.66;100.00;55571.53;5134004;28;20062;-73
2023/08/14 06:01:31;;;;;;;22.42;7.45;;;;;;;-140.66;100.00;55571.53;5134254;28;20356;-73
2023/08/14 06:05:15;;;;;;;19.10;7.75;;;;;;;-140.66;100.00;55571.53;5134476;28;20027;-72
2023/08/14 06:09:00;;;;;;;48.38;11.60;;;;;;;-140.66;100.00;55571.53;5133843;28;20063;-72
2023/08/14 06:12:44;;;;;;;26.92;8.35;;;;;;;-140.66;100.00;55571.53;5134488;28;20451;-72
2023/08/14 06:16:28;;;;;;;34.55;9.52;;;;;;;-140.66;100.00;55571.53;5135244;27;20487;-73
2023/08/14 06:20:13;;;;;;;21.75;7.50;;;;;;;-140.66;100.00;55571.53;5133946;28;20050;-72
2023/08/14 06:23:57;;;;;;;19.33;7.15;;;;;;;-140.66;100.00;55571.53;5133965;28;20027;-72
2023/08/14 06:27:41;;;;;;;27.33;9.27;;;;;;;-140.66;100.00;55571.53;5133703;28;20474;-73
2023/08/14 06:31:25;;;;;;;24.48;8.45;;;;;;;-140.66;100.00;55571.53;5134567;28;20046;-73
2023/08/14 06:35:09;;;;;;;27.48;9.00;;;;;;;-140.66;100.00;55571.53;5137584;27;20027;-76
2023/08/14 06:38:54;;;;;;;27.05;8.55;;;;;;;-140.66;100.00;55571.53;5137001;27;20357;-73
2023/08/14 06:42:38;;;;;;;12.75;6.82;;;;;;;-140.66;100.00;55571.53;5137132;27;20023;-72
2023/08/14 06:46:25;;;;;;;7.85;5.93;;;;;;;-140.66;100.00;55571.53;5138257;27;20118;-74
2023/08/14 06:50:10;;;;;;;8.40;5.15;;;;;;;-140.66;100.00;55571.53;5138318;27;20035;-72
2023/08/14 06:53:54;;;;;;;9.68;5.55;;;;;;;-140.66;100.00;55571.53;5137797;27;20023;-73
2023/08/14 06:57:38;;;;;;;6.63;5.30;;;;;;;-140.66;100.00;55571.53;5136552;27;20046;-73
2023/08/14 07:01:23;;;;;;;10.40;5.72;;;;;;;-140.66;100.00;55571.53;5136810;27;20027;-74
2023/08/14 07:05:09;;;;;;;7.45;5.57;;;;;;;-140.66;100.00;55571.53;5155275;27;20083;-74
2023/08/14 07:08:53;;;;;;;7.13;5.72;;;;;;;-140.66;100.00;55571.53;5147975;27;20106;-74
2023/08/14 07:12:37;;;;;;;10.30;5.50;;;;;;;-140.66;100.00;55571.53;5135851;27;20055;-74
2023/08/14 07:16:21;;;;;;;7.38;5.80;;;;;;;-140.66;100.00;55571.53;5138647;27;20353;-73
2023/08/14 07:20:06;;;;;;;7.82;5.35;;;;;;;-140.66;100.00;55571.53;5137039;27;20034;-75
2023/08/14 07:23:51;;;;;;;6.32;5.28;;;;;;;-140.66;100.00;55571.53;5136396;27;20019;-73
2023/08/14 07:27:35;;;;;;;7.45;5.13;;;;;;;-140.66;100.00;55571.53;5137792;27;20042;-73
2023/08/14 07:31:19;;;;;;;6.35;4.80;;;;;;;-140.66;100.00;55571.53;5136521;27;20098;-74
2023/08/14 07:35:04;;;;;;;6.55;4.80;;;;;;;-140.66;100.00;55571.53;5137249;27;20051;-73
2023/08/14 07:38:48;;;;;;;16.38;5.18;;;;;;;-140.66;100.00;55571.53;5136127;27;20163;-73
2023/08/14 07:42:32;;;;;;;12.10;5.40;;;;;;;-140.66;100.00;55571.53;5137224;27;20023;-73
2023/08/14 07:46:18;;;;;;;8.45;5.22;;;;;;;-140.66;100.00;55571.53;5135741;27;20070;-72
2023/08/14 07:50:02;;;;;;;8.10;5.07;;;;;;;-140.66;100.00;55571.53;5136869;27;20042;-73
2023/08/14 07:53:46;;;;;;;11.88;4.43;;;;;;;-140.66;100.00;55571.53;5135932;27;20060;-72
2023/08/14 07:57:37;;;;;;;7.95;4.30;;;;;;;-140.66;100.00;55571.53;5137483;27;20110;-74
2023/08/14 08:01:21;;;;;;;6.38;4.30;;;;;;;-140.66;100.00;55571.53;5135711;27;20027;-72
2023/08/14 08:05:08;;;;;;;8.35;4.32;;;;;;;-140.66;100.00;55571.53;5136369;27;20055;-74
2023/08/14 08:08:53;;;;;;;6.60;4.50;;;;;;;-140.66;100.00;55571.53;5136109;27;20030;-74
2023/08/14 08:12:40;;;;;;;8.52;4.70;;;;;;;-140.66;100.00;55571.53;5135853;27;20035;-72
2023/08/14 08:16:25;;;;;;;7.43;5.03;;;;;;;-140.66;100.00;55571.53;5136586;27;20023;-72
2023/08/14 08:20:09;;;;;;;5.63;4.00;;;;;;;-140.66;100.00;55571.53;5135973;27;20027;-72
2023/08/14 08:23:54;;;;;;;5.55;4.00;;;;;;;-140.66;100.00;55571.53;5135924;27;20029;-75
2023/08/14 08:27:38;;;;;;;14.30;4.53;;;;;;;-140.66;100.00;55571.53;5135189;27;20051;-72
2023/08/14 08:31:22;;;;;;;7.28;4.03;;;;;;;-140.66;100.00;55571.53;5135260;27;20409;-72
2023/08/14 08:35:07;;;;;;;6.18;4.22;;;;;;;-140.66;100.00;55571.53;5134813;27;20054;-73
2023/08/14 08:38:51;;;;;;;6.82;3.95;;;;;;;-140.66;100.00;55571.53;5135465;27;20352;-72
2023/08/14 08:42:37;;;;;;;12.73;4.50;;;;;;;-140.66;100.00;55571.53;5135612;27;20448;-74
2023/08/14 08:46:24;;;;;;;12.75;4.85;;;;;;;-140.66;100.00;55571.53;5134979;27;20106;-73
2023/08/14 08:50:08;;;;;;;7.75;3.80;;;;;;;-140.66;100.00;55571.53;5135010;27;20075;-75
2023/08/14 08:53:53;;;;;;;9.68;4.43;;;;;;;-140.66;100.00;55571.53;5134272;27;20026;-73
2023/08/14 08:57:38;;;;;;;9.50;4.18;;;;;;;-140.66;100.00;55571.53;5134554;27;20023;-73
2023/08/14 09:01:23;;;;;;;5.95;3.90;;;;;;;-140.66;100.00;55571.53;5135255;27;20027;-72
2023/08/14 09:05:10;;;;;;;9.30;4.45;;;;;;;-140.66;100.00;55571.53;5134767;27;20031;-72
2023/08/14 09:08:55;;;;;;;4.78;3.78;;;;;;;-140.66;100.00;55571.53;5134789;27;20026;-73
2023/08/14 09:12:39;;;;;;;5.20;4.10;;;;;;;-140.66;100.00;55571.53;5133703;27;20391;-73
2023/08/14 09:16:27;;;;;;;10.50;4.15;;;;;;;-140.66;100.00;55571.53;5134445;27;20076;-74
2023/08/14 09:20:15;;;;;;;18.08;4.38;;;;;;;-140.66;100.00;55571.53;5135053;27;20453;-73
2023/08/14 09:23:59;;;;;;;8.18;4.20;;;;;;;-140.66;100.00;55571.53;5134906;27;20034;-72
2023/08/14 09:27:43;;;;;;;15.50;4.30;;;;;;;-140.66;100.00;55571.53;5135752;27;20027;-72
2023/08/14 09:31:30;;;;;;;16.65;4.57;;;;;;;-140.66;100.00;55571.53;5134752;28;20019;-73
2023/08/14 09:35:15;;;;;;;8.35;4.38;;;;;;;-140.66;100.00;55571.53;5134618;28;20456;-73
2023/08/14 09:39:00;;;;;;;55.67;6.63;;;;;;;-140.66;100.00;55571.53;5134521;28;20023;-73
2023/08/14 09:42:47;;;;;;;5.28;3.80;;;;;;;-140.66;100.00;55571.53;5133631;28;20023;-72
2023/08/14 09:46:32;;;;;;;8.80;4.43;;;;;;;-140.66;100.00;55571.53;5134161;28;20039;-72
2023/08/14 09:50:17;;;;;;;5.47;4.03;;;;;;;-140.66;100.00;55571.53;5134682;28;20457;-73
2023/08/14 09:54:02;;;;;;;7.03;3.80;;;;;;;-140.66;100.00;55571.53;5134707;28;20023;-73
2023/08/14 09:57:47;;;;;;;7.28;4.22;;;;;;;-140.66;100.00;55571.53;5134172;28;20038;-75
2023/08/14 10:01:31;;;;;;;6.47;4.40;;;;;;;-140.66;100.00;55571.53;5134483;28;20034;-74
2023/08/14 10:05:16;;;;;;;5.78;4.30;;;;;;;-140.66;100.00;55571.53;5134557;28;20027;-73
2023/08/14 10:09:02;;;;;;;6.45;4.25;;;;;;;-140.66;100.00;55571.53;5135086;27;20038;-73
2023/08/14 10:12:51;;;;;;;8.38;4.82;;;;;;;-140.66;100.00;55571.53;5137211;27;20378;-73
2023/08/14 10:16:39;;;;;;;8.80;4.43;;;;;;;-140.66;100.00;55571.53;5137626;27;20109;-72
2023/08/14 10:20:32;;;;;;;9.48;4.70;;;;;;;-140.66;100.00;55571.53;5137679;27;20050;-73
2023/08/14 10:24:17;;;;;;;15.77;4.60;;;;;;;-140.66;100.00;55571.53;5138356;27;20482;-74
2023/08/14 10:28:03;;;;;;;9.82;4.55;;;;;;;-140.66;100.00;55571.53;5138489;27;20031;-71
2023/08/14 10:31:47;;;;;;;7.32;4.43;;;;;;;-140.66;100.00;55571.53;5140013;27;20027;-75
2023/08/14 10:36:08;;;;;;;7.32;4.22;;;;;;;-140.66;100.00;55571.53;5137417;27;20046;-73
2023/08/14 10:39:56;;;;;;;10.73;4.43;;;;;;;-140.66;100.00;55571.53;5056996;28;20564;-74
2023/08/14 10:43:50;;;;;;;32.00;6.22;;;;;;;-140.66;100.00;55571.53;5142588;27;20030;-75
2023/08/14 10:47:44;;;;;;;7.22;3.72;;;;;;;-140.66;100.00;55571.53;5149339;27;20043;-74
2023/08/14 10:51:32;;;;;;;9.77;4.13;;;;;;;-140.66;100.00;55571.53;5139929;27;20055;-73
2023/08/14 10:55:34;;;;;;;7.47;3.70;;;;;;;-140.66;100.00;55571.53;5137605;27;20039;-73
2023/08/14 10:59:28;;;;;;;13.43;4.85;;;;;;;-140.66;100.00;55571.53;5138097;27;20042;-71
2023/08/14 11:03:13;;;;;;;14.77;4.10;;;;;;;-140.66;100.00;55571.53;5137312;27;20092;-73
2023/08/14 11:06:57;;;;;;;34.72;5.13;;;;;;;-140.66;100.00;55571.53;5138582;27;20082;-72
2023/08/14 11:10:44;;;;;;;7.75;3.80;;;;;;;-140.66;100.00;55571.53;5137517;27;20016;-72
2023/08/14 11:14:29;;;;;;;15.23;4.00;;;;;;;-140.66;100.00;55571.53;5137164;27;20452;-72
2023/08/14 11:18:13;;;;;;;6.30;3.95;;;;;;;-140.66;100.00;55571.53;5136636;27;20142;-73
2023/08/14 11:21:58;;;;;;;6.95;3.95;;;;;;;-140.66;100.00;55571.53;5136815;27;20031;-72
2023/08/14 11:25:42;;;;;;;11.82;4.05;;;;;;;-140.66;100.00;55571.53;5145126;27;20115;-73
2023/08/14 11:29:29;;;;;;;15.18;3.85;;;;;;;-140.66;100.00;55571.53;5137666;27;20361;-73
2023/08/14 11:33:14;;;;;;;6.38;3.88;;;;;;;-140.66;100.00;55571.53;5138300;27;20079;-74
2023/08/14 11:37:04;;;;;;;6.97;3.72;;;;;;;-140.66;100.00;55571.53;5138136;27;20034;-72
2023/08/14 11:40:48;;;;;;;6.18;3.78;;;;;;;-140.66;100.00;55571.53;5137050;27;20099;-72
2023/08/14 11:44:36;;;;;;;5.78;3.78;;;;;;;-140.66;100.00;55571.53;5136098;27;20167;-73
2023/08/14 11:48:20;;;;;;;9.60;3.65;;;;;;;-140.66;100.00;55571.53;5136192;27;20460;-73
2023/08/14 11:52:05;;;;;;;5.68;3.85;;;;;;;-140.66;100.00;55571.53;5136154;27;20027;-73
2023/08/14 11:55:49;;;;;;;6.80;3.83;;;;;;;-140.66;100.00;55571.53;5135923;27;20039;-73
2023/08/14 11:59:38;;;;;;;8.60;3.70;;;;;;;-140.66;100.00;55571.53;5136592;27;20070;-72
2023/08/14 12:03:23;;;;;;;12.75;3.65;;;;;;;-140.66;100.00;55571.53;5136791;27;20072;-72
2023/08/14 12:07:09;;;;;;;8.27;4.13;;;;;;;-140.66;100.00;55571.53;5136930;27;20464;-72
2023/08/14 12:10:55;;;;;;;8.48;3.88;;;;;;;-140.66;100.00;55571.53;5135661;27;20113;-72
2023/08/14 12:14:43;;;;;;;3.83;3.30;;;;;;;-140.66;100.00;55571.53;5135782;27;20023;-73
2023/08/14 12:18:29;;;;;;;5.85;3.95;;;;;;;-140.66;100.00;55571.53;5135644;27;20414;-73
2023/08/14 12:22:14;;;;;;;5.90;3.65;;;;;;;-140.66;100.00;55571.53;5135309;27;20151;-73
2023/08/14 12:25:58;;;;;;;11.40;3.88;;;;;;;-140.66;100.00;55571.53;5135812;27;20069;-73
2023/08/14 12:29:42;;;;;;;7.40;3.95;;;;;;;-140.66;100.00;55571.53;5134884;27;20083;-73
2023/08/14 12:33:27;;;;;;;9.57;4.15;;;;;;;-140.66;100.00;55571.53;5134581;27;20027;-73
2023/08/14 12:37:14;;;;;;;9.45;3.58;;;;;;;-140.66;100.00;55571.53;5136474;27;20045;-73
2023/08/14 12:40:58;;;;;;;10.18;4.20;;;;;;;-140.66;100.00;55571.53;5136511;27;20026;-73
2023/08/14 12:44:42;;;;;;;18.05;4.70;;;;;;;-140.66;100.00;55571.53;5135108;27;20334;-73
2023/08/14 12:48:27;;;;;;;5.43;3.58;;;;;;;-140.66;100.00;55571.53;5135343;27;20051;-72
2023/08/14 12:52:11;;;;;;;6.93;4.18;;;;;;;-140.66;100.00;55571.53;5134911;27;20429;-72
2023/08/14 12:55:55;;;;;;;9.30;4.65;;;;;;;-140.66;100.00;55571.53;5134602;27;20023;-72
2023/08/14 12:59:39;;;;;;;15.80;4.78;;;;;;;-140.66;100.00;55571.53;5139592;27;20062;-72
2023/08/14 13:03:25;;;;;;;10.05;4.32;;;;;;;-140.66;100.00;55571.53;5141488;27;20031;-72
2023/08/14 13:07:09;;;;;;;19.40;3.85;;;;;;;-140.66;100.00;55571.53;5142037;27;20031;-72
2023/08/14 13:10:53;;;;;;;5.95;3.60;;;;;;;-140.66;100.00;55571.53;5141477;27;20341;-71
2023/08/14 13:14:38;;;;;;;14.23;4.18;;;;;;;-140.66;100.00;55571.53;5143111;27;20023;-74
2023/08/14 13:18:22;;;;;;;9.07;4.32;;;;;;;-140.66;100.00;55571.53;5139789;27;20023;-73
2023/08/14 13:22:06;;;;;;;6.25;3.88;;;;;;;-140.66;100.00;55571.53;5137488;27;20050;-72
2023/08/14 13:25:51;;;;;;;7.28;4.05;;;;;;;-140.66;100.00;55571.53;5135641;27;20101;-73
2023/08/14 13:29:36;;;;;;;7.75;3.72;;;;;;;-140.66;100.00;55571.53;5137606;28;20073;-72
2023/08/14 13:33:20;;;;;;;13.73;4.25;;;;;;;-140.66;100.00;55571.53;5137081;28;20115;-72
2023/08/14 13:37:04;;;;;;;4.30;3.80;;;;;;;-140.66;100.00;55571.53;5134742;28;20023;-73
2023/08/14 13:40:49;;;;;;;8.20;4.18;;;;;;;-140.66;100.00;55571.53;5134697;28;20031;-73
2023/08/14 13:44:33;;;;;;;4.75;3.80;;;;;;;-140.66;100.00;55571.53;5134191;27;20110;-72
2023/08/14 13:48:17;;;;;;;8.45;3.72;;;;;;;-140.66;100.00;55571.53;5139722;27;20047;-72
2023/08/14 13:52:01;;;;;;;11.63;3.78;;;;;;;-140.66;100.00;55571.53;5138354;27;20023;-73
2023/08/14 13:55:46;;;;;;;9.73;4.10;;;;;;;-140.66;100.00;55571.53;5138577;27;20119;-73
2023/08/14 13:59:30;;;;;;;11.95;4.00;;;;;;;-140.66;100.00;55571.53;5137876;27;20114;-73
2023/08/14 14:03:14;;;;;;;8.68;4.35;;;;;;;-140.66;100.00;55571.53;5138660;27;20027;-73
2023/08/14 14:06:58;;;;;;;6.70;4.07;;;;;;;-140.66;100.00;55571.53;5139137;27;20023;-72
2023/08/14 14:10:43;;;;;;;8.32;4.10;;;;;;;-140.66;100.00;55571.53;5138455;27;20087;-72
2023/08/14 14:14:27;;;;;;;10.35;4.38;;;;;;;-140.66;100.00;55571.53;5138601;27;20066;-73
2023/08/14 14:18:12;;;;;;;10.77;3.80;;;;;;;-140.66;100.00;55571.53;5139375;27;20113;-72
2023/08/14 14:21:56;;;;;;;6.55;4.07;;;;;;;-140.66;100.00;55571.53;5138675;27;20023;-74
2023/08/14 14:25:43;;;;;;;7.70;4.50;;;;;;;-140.66;100.00;55571.53;5137517;27;20027;-72
2023/08/14 14:29:29;;;;;;;7.10;3.90;;;;;;;-140.66;100.00;55571.53;5138261;27;20027;-73
2023/08/14 14:33:13;;;;;;;5.20;3.40;;;;;;;-140.66;100.00;55571.53;5137930;27;20110;-74
2023/08/14 14:36:58;;;;;;;9.10;4.10;;;;;;;-140.66;100.00;55571.53;5137421;27;20436;-73
2023/08/14 14:40:42;;;;;;;6.10;3.92;;;;;;;-140.66;100.00;55571.53;5137235;27;20348;-73
2023/08/14 14:44:26;;;;;;;7.55;4.60;;;;;;;-140.66;100.00;55571.53;5139093;27;20384;-73
2023/08/14 14:48:11;;;;;;;8.38;4.40;;;;;;;-140.66;100.00;55571.53;5136380;27;20493;-73
2023/08/14 14:51:59;;;;;;;6.88;4.60;;;;;;;-140.66;100.00;55571.53;5137423;28;20029;-73
2023/08/14 14:55:44;;;;;;;9.80;4.53;;;;;;;-140.66;100.00;55571.53;5136340;27;20027;-73
2023/08/14 14:59:28;;;;;;;8.07;4.63;;;;;;;-140.66;100.00;55571.53;5140302;28;20323;-73
2023/08/14 15:03:13;;;;;;;8.57;4.60;;;;;;;-140.66;100.00;55571.53;5144631;28;20460;-72
2023/08/14 15:06:57;;;;;;;8.75;4.60;;;;;;;-140.66;100.00;55571.53;5137545;28;20019;-73
2023/08/14 15:10:41;;;;;;;11.93;4.30;;;;;;;-140.66;100.00;55571.53;5137111;28;20037;-73
2023/08/14 15:14:28;;;;;;;17.75;5.50;;;;;;;-140.66;100.00;55571.53;5135910;28;20367;-75
2023/08/14 15:18:13;;;;;;;12.93;7.70;;;;;;;-140.66;100.00;55571.53;5136278;28;20019;-74
2023/08/14 15:21:57;;;;;;;11.50;7.20;;;;;;;-140.66;100.00;55571.53;5135309;28;20412;-74
2023/08/14 15:25:41;;;;;;;9.68;5.97;;;;;;;-140.66;100.00;55571.53;5145665;28;20122;-73
2023/08/14 15:29:25;;;;;;;8.82;5.05;;;;;;;-140.66;100.00;55571.53;5139501;28;20114;-73
2023/08/14 15:33:10;;;;;;;8.82;5.32;;;;;;;-140.66;100.00;55571.53;5141831;28;20019;-73
2023/08/14 15:36:54;;;;;;;10.25;5.10;;;;;;;-140.66;100.00;55571.53;5141218;28;20015;-74
2023/08/14 15:40:45;;;;;;;8.85;6.50;;;;;;;-140.66;100.00;55571.53;5135166;28;20402;-73
2023/08/14 15:44:29;;;;;;;9.73;6.22;;;;;;;-140.66;100.00;55571.53;5135188;28;20380;-73
2023/08/14 15:48:13;;;;;;;9.13;6.60;;;;;;;-140.66;100.00;55571.53;5095032;27;1168522;-72
2023/08/14 15:51:57;;;;;;;9.70;6.78;;;;;;;-140.66;100.00;55571.53;5136768;27;20354;-72
2023/08/14 15:55:41;;;;;;;24.42;7.78;;;;;;;-140.66;100.00;55571.53;5138871;27;20468;-73
2023/08/14 15:59:29;;;;;;;11.32;7.45;;;;;;;-140.66;100.00;55571.53;5135300;27;20058;-72
2023/08/14 16:03:13;;;;;;;16.17;7.93;;;;;;;-140.66;100.00;55571.53;5135085;27;20027;-75
2023/08/14 16:06:57;;;;;;;11.52;6.40;;;;;;;-140.66;100.00;55571.53;5138998;27;20058;-73
2023/08/14 16:10:45;;;;;;;12.57;6.20;;;;;;;-140.66;100.00;55571.53;5136665;27;20022;-74
2023/08/14 16:14:29;;;;;;;9.60;5.20;;;;;;;-140.66;100.00;55571.53;5136290;27;20385;-75
2023/08/14 16:18:13;;;;;;;13.43;5.70;;;;;;;-140.66;100.00;55571.53;5137447;27;20083;-71
2023/08/14 16:21:57;;;;;;;9.98;5.28;;;;;;;-140.66;100.00;55571.53;5136687;27;20031;-72
2023/08/14 16:25:42;;;;;;;18.42;6.78;;;;;;;-140.66;100.00;55571.53;5134758;27;20023;-73
2023/08/14 16:29:26;;;;;;;11.00;5.40;;;;;;;-140.66;100.00;55571.53;5135190;27;20525;-73
2023/08/14 16:33:10;;;;;;;6.88;3.90;;;;;;;-140.66;100.00;55571.53;5135396;27;20023;-73
2023/08/14 16:36:54;;;;;;;6.68;4.30;;;;;;;-140.66;100.00;55571.53;5136399;27;20062;-73
2023/08/14 16:40:42;;;;;;;17.70;4.97;;;;;;;-140.66;100.00;55571.53;5135623;27;20119;-73
2023/08/14 16:44:27;;;;;;;9.25;4.30;;;;;;;-140.66;100.00;55571.53;5135101;27;20516;-74
2023/08/14 16:48:11;;;;;;;12.30;4.22;;;;;;;-140.66;100.00;55571.53;5135387;27;20058;-72
2023/08/14 16:51:58;;;;;;;11.68;4.28;;;;;;;-140.66;100.00;55571.53;5135756;27;20357;-73
2023/08/14 16:55:43;;;;;;;6.20;3.90;;;;;;;-140.66;100.00;55571.53;5135002;27;20055;-72
2023/08/14 16:59:27;;;;;;;5.72;3.83;;;;;;;-140.66;100.00;55571.53;5134616;27;20031;-71